sensor_id;sensor_type;location;lat;lon;timestamp;pressure;altitude;pressure_sealevel;temperature;humidity
60059;BME280;45932;50.658;3.022;2022-10-16T00:01:45;100881.59;;;17.64;61.46
60059;BME280;45932;50.658;3.022;2022-10-16T00:04:11;100871.09;;;17.57;61.16
60059;BME280;45932;50.658;3.022;2022-10-16T00:06:37;100534.66;;;15.64;61.55
60059;BME280;45932;50.658;3.022;2022-10-16T00:09:03;100870.28;;;17.55;61.26
60059;BME280;45932;50.658;3.022;2022-10-16T00:11:34;100850.97;;;17.44;61.63
60059;BME280;45932;50.658;3.022;2022-10-16T00:14:03;100670.88;;;16.22;61.48
60059;BME280;45932;50.658;3.022;2022-10-16T00:16:29;100726.97;;;16.52;61.20
60059;BME280;45932;50.658;3.022;2022-10-16T00:18:55;100810.09;;;17.07;61.61
60059;BME280;45932;50.658;3.022;2022-10-16T00:21:23;100880.09;;;17.53;61.87
60059;BME280;45932;50.658;3.022;2022-10-16T00:23:53;100742.81;;;16.58;61.61
60059;BME280;45932;50.658;3.022;2022-10-16T00:26:19;100880.03;;;17.55;61.79
60059;BME280;45932;50.658;3.022;2022-10-16T00:28:49;100847.59;;;17.37;61.75
60059;BME280;45932;50.658;3.022;2022-10-16T00:31:17;100704.28;;;16.34;61.63
60059;BME280;45932;50.658;3.022;2022-10-16T00:33:43;100726.13;;;16.52;61.83
60059;BME280;45932;50.658;3.022;2022-10-16T00:36:11;100680.47;;;16.28;61.84
60059;BME280;45932;50.658;3.022;2022-10-16T00:38:37;100825.34;;;17.01;62.00
60059;BME280;45932;50.658;3.022;2022-10-16T00:41:03;100649.00;;;16.08;62.05
60059;BME280;45932;50.658;3.022;2022-10-16T00:43:49;100805.13;;;16.92;62.09
60059;BME280;45932;50.658;3.022;2022-10-16T00:46:24;100891.97;;;17.40;62.31
60059;BME280;45932;50.658;3.022;2022-10-16T00:48:56;100750.84;;;16.57;62.23
60059;BME280;45932;50.658;3.022;2022-10-16T00:51:49;100820.03;;;17.01;62.26
60059;BME280;45932;50.658;3.022;2022-10-16T00:54:20;100767.53;;;16.63;62.22
60059;BME280;45932;50.658;3.022;2022-10-16T00:56:46;100636.09;;;15.89;62.50
60059;BME280;45932;50.658;3.022;2022-10-16T00:59:17;100683.59;;;16.08;62.27
60059;BME280;45932;50.658;3.022;2022-10-16T01:01:44;100800.16;;;16.75;62.65
60059;BME280;45932;50.658;3.022;2022-10-16T01:04:10;100804.63;;;16.73;62.49
60059;BME280;45932;50.658;3.022;2022-10-16T01:20:39;100905.44;;;17.34;62.86
60059;BME280;45932;50.658;3.022;2022-10-16T01:26:20;100883.22;;;17.35;62.66
60059;BME280;45932;50.658;3.022;2022-10-16T01:31:23;100715.31;;;16.19;62.70
60059;BME280;45932;50.658;3.022;2022-10-16T01:34:04;100885.13;;;17.28;62.71
60059;BME280;45932;50.658;3.022;2022-10-16T01:36:38;100749.88;;;16.59;62.99
60059;BME280;45932;50.658;3.022;2022-10-16T01:39:06;100602.09;;;15.61;62.57
60059;BME280;45932;50.658;3.022;2022-10-16T01:41:39;100541.59;;;15.29;62.52
60059;BME280;45932;50.658;3.022;2022-10-16T01:46:38;100903.50;;;17.40;62.57
60059;BME280;45932;50.658;3.022;2022-10-16T01:49:06;100764.06;;;16.61;62.37
60059;BME280;45932;50.658;3.022;2022-10-16T01:51:34;100607.31;;;15.64;62.37
60059;BME280;45932;50.658;3.022;2022-10-16T01:54:01;100795.50;;;16.83;62.61
60059;BME280;45932;50.658;3.022;2022-10-16T01:56:29;100612.38;;;15.77;62.39
60059;BME280;45932;50.658;3.022;2022-10-16T01:58:59;100522.06;;;15.31;62.83
60059;BME280;45932;50.658;3.022;2022-10-16T02:01:30;100633.59;;;15.80;62.66
60059;BME280;45932;50.658;3.022;2022-10-16T02:04:01;100894.75;;;17.35;62.61
60059;BME280;45932;50.658;3.022;2022-10-16T02:06:26;100638.03;;;15.81;62.44
60059;BME280;45932;50.658;3.022;2022-10-16T02:08:53;100778.28;;;16.60;62.26
60059;BME280;45932;50.658;3.022;2022-10-16T02:11:19;100808.00;;;16.81;62.42
60059;BME280;45932;50.658;3.022;2022-10-16T02:14:05;100868.41;;;17.21;62.58
60059;BME280;45932;50.658;3.022;2022-10-16T02:16:37;100824.81;;;16.83;62.72
60059;BME280;45932;50.658;3.022;2022-10-16T02:19:04;100540.84;;;15.22;62.45
60059;BME280;45932;50.658;3.022;2022-10-16T02:24:32;100752.97;;;16.39;62.49
60059;BME280;45932;50.658;3.022;2022-10-16T02:29:53;100842.41;;;16.90;62.52
60059;BME280;45932;50.658;3.022;2022-10-16T02:32:24;100872.41;;;17.02;62.65
60059;BME280;45932;50.658;3.022;2022-10-16T02:34:56;100720.63;;;16.17;62.39
60059;BME280;45932;50.658;3.022;2022-10-16T02:37:23;100672.50;;;15.87;62.38
60059;BME280;45932;50.658;3.022;2022-10-16T02:39:50;100650.91;;;15.57;62.51
60059;BME280;45932;50.658;3.022;2022-10-16T02:42:17;100793.16;;;16.28;62.32
60059;BME280;45932;50.658;3.022;2022-10-16T02:44:43;100927.97;;;17.20;62.37
60059;BME280;45932;50.658;3.022;2022-10-16T02:47:09;100819.41;;;16.47;62.76
60059;BME280;45932;50.658;3.022;2022-10-16T02:49:34;100837.88;;;16.55;62.33
60059;BME280;45932;50.658;3.022;2022-10-16T02:51:59;100663.38;;;15.55;62.49
60059;BME280;45932;50.658;3.022;2022-10-16T02:54:25;100838.94;;;16.46;62.59
60059;BME280;45932;50.658;3.022;2022-10-16T02:56:50;100827.47;;;16.42;62.51
60059;BME280;45932;50.658;3.022;2022-10-16T02:59:16;100581.97;;;15.02;62.40
60059;BME280;45932;50.658;3.022;2022-10-16T03:01:42;100609.19;;;15.15;62.69
60059;BME280;45932;50.658;3.022;2022-10-16T03:04:07;100582.91;;;15.00;62.40
60059;BME280;45932;50.658;3.022;2022-10-16T03:06:33;100710.66;;;15.86;62.58
60059;BME280;45932;50.658;3.022;2022-10-16T03:08:58;100840.56;;;16.53;62.75
60059;BME280;45932;50.658;3.022;2022-10-16T03:11:23;100709.84;;;15.79;62.67
60059;BME280;45932;50.658;3.022;2022-10-16T03:13:49;100736.09;;;15.99;62.49
60059;BME280;45932;50.658;3.022;2022-10-16T03:16:14;100856.47;;;16.58;62.73
60059;BME280;45932;50.658;3.022;2022-10-16T03:18:39;100635.59;;;15.23;62.26
60059;BME280;45932;50.658;3.022;2022-10-16T03:21:05;100841.91;;;16.32;62.57
60059;BME280;45932;50.658;3.022;2022-10-16T03:23:30;100752.22;;;15.90;62.71
60059;BME280;45932;50.658;3.022;2022-10-16T03:25:56;100676.00;;;15.42;62.89
60059;BME280;45932;50.658;3.022;2022-10-16T03:28:21;100765.53;;;15.90;62.48
60059;BME280;45932;50.658;3.022;2022-10-16T03:30:46;100741.59;;;15.90;62.89
60059;BME280;45932;50.658;3.022;2022-10-16T03:33:12;100887.38;;;16.63;62.62
60059;BME280;45932;50.658;3.022;2022-10-16T03:35:37;100760.38;;;15.79;62.82
60059;BME280;45932;50.658;3.022;2022-10-16T03:38:02;100798.09;;;16.03;62.39
60059;BME280;45932;50.658;3.022;2022-10-16T03:40:28;100731.38;;;15.67;62.88
60059;BME280;45932;50.658;3.022;2022-10-16T03:42:53;100761.22;;;15.81;62.61
60059;BME280;45932;50.658;3.022;2022-10-16T03:45:22;100832.97;;;16.33;62.93
60059;BME280;45932;50.658;3.022;2022-10-16T03:47:47;100856.84;;;16.38;62.92
60059;BME280;45932;50.658;3.022;2022-10-16T03:50:13;100785.03;;;15.89;62.62
60059;BME280;45932;50.658;3.022;2022-10-16T03:52:38;100782.38;;;15.89;63.50
60059;BME280;45932;50.658;3.022;2022-10-16T03:55:04;100841.78;;;16.37;63.91
60059;BME280;45932;50.658;3.022;2022-10-16T03:57:29;100876.94;;;16.53;63.67
60059;BME280;45932;50.658;3.022;2022-10-16T03:59:55;100604.56;;;14.78;63.49
60059;BME280;45932;50.658;3.022;2022-10-16T04:02:20;100837.84;;;16.11;64.19
60059;BME280;45932;50.658;3.022;2022-10-16T04:04:45;100637.97;;;14.90;63.10
60059;BME280;45932;50.658;3.022;2022-10-16T04:07:11;100874.06;;;16.20;63.11
60059;BME280;45932;50.658;3.022;2022-10-16T04:09:36;100921.31;;;16.55;63.04
60059;BME280;45932;50.658;3.022;2022-10-16T04:12:01;100767.91;;;15.56;63.51
60059;BME280;45932;50.658;3.022;2022-10-16T04:14:27;100768.78;;;15.58;63.34
60059;BME280;45932;50.658;3.022;2022-10-16T04:16:52;100796.91;;;15.69;63.48
60059;BME280;45932;50.658;3.022;2022-10-16T04:19:17;100919.69;;;16.48;63.50
60059;BME280;45932;50.658;3.022;2022-10-16T04:21:44;100638.97;;;14.84;63.21
60059;BME280;45932;50.658;3.022;2022-10-16T04:24:09;100988.97;;;16.90;63.16
60059;BME280;45932;50.658;3.022;2022-10-16T04:26:36;100880.31;;;16.17;63.13
60059;BME280;45932;50.658;3.022;2022-10-16T04:29:02;100863.69;;;16.06;63.15
60059;BME280;45932;50.658;3.022;2022-10-16T04:31:27;100830.25;;;15.89;63.09
60059;BME280;45932;50.658;3.022;2022-10-16T04:33:52;100775.91;;;15.56;63.00
60059;BME280;45932;50.658;3.022;2022-10-16T04:36:18;100921.63;;;16.38;63.22
60059;BME280;45932;50.658;3.022;2022-10-16T04:38:43;100815.41;;;15.76;63.50
60059;BME280;45932;50.658;3.022;2022-10-16T04:41:08;100926.81;;;16.46;63.30
60059;BME280;45932;50.658;3.022;2022-10-16T04:43:34;100715.69;;;15.03;63.28
60059;BME280;45932;50.658;3.022;2022-10-16T04:45:59;100806.00;;;15.56;63.51
60059;BME280;45932;50.658;3.022;2022-10-16T04:48:25;100777.91;;;15.41;63.18
60059;BME280;45932;50.658;3.022;2022-10-16T04:50:50;100947.34;;;16.39;63.37
60059;BME280;45932;50.658;3.022;2022-10-16T04:53:16;100794.56;;;15.51;63.40
60059;BME280;45932;50.658;3.022;2022-10-16T04:55:42;100907.66;;;16.25;63.15
60059;BME280;45932;50.658;3.022;2022-10-16T04:58:08;100866.56;;;15.93;63.14
60059;BME280;45932;50.658;3.022;2022-10-16T05:00:34;101043.16;;;16.91;63.15
60059;BME280;45932;50.658;3.022;2022-10-16T05:03:00;100735.94;;;15.09;63.08
60059;BME280;45932;50.658;3.022;2022-10-16T05:05:27;100949.94;;;16.42;63.45
60059;BME280;45932;50.658;3.022;2022-10-16T05:07:52;100896.50;;;16.05;63.26
60059;BME280;45932;50.658;3.022;2022-10-16T05:10:28;100884.19;;;15.99;63.13
60059;BME280;45932;50.658;3.022;2022-10-16T05:12:53;100997.53;;;16.61;63.20
60059;BME280;45932;50.658;3.022;2022-10-16T05:15:19;100670.22;;;14.68;63.33
60059;BME280;45932;50.658;3.022;2022-10-16T05:17:44;100941.47;;;16.20;63.43
60059;BME280;45932;50.658;3.022;2022-10-16T05:26:53;101015.56;;;16.45;63.36
60059;BME280;45932;50.658;3.022;2022-10-16T05:36:07;101080.56;;;16.83;63.08
60059;BME280;45932;50.658;3.022;2022-10-16T05:38:34;100940.31;;;15.85;63.38
60059;BME280;45932;50.658;3.022;2022-10-16T05:41:01;100864.78;;;15.41;62.98
60059;BME280;45932;50.658;3.022;2022-10-16T05:43:30;100877.94;;;15.48;63.08
60059;BME280;45932;50.658;3.022;2022-10-16T05:46:01;101085.19;;;16.75;63.35
60059;BME280;45932;50.658;3.022;2022-10-16T05:48:28;100949.25;;;15.78;63.40
60059;BME280;45932;50.658;3.022;2022-10-16T05:51:01;100972.09;;;15.94;63.30
60059;BME280;45932;50.658;3.022;2022-10-16T05:53:28;101090.53;;;16.73;63.28
60059;BME280;45932;50.658;3.022;2022-10-16T05:55:55;100951.81;;;15.87;63.17
60059;BME280;45932;50.658;3.022;2022-10-16T05:58:21;100953.56;;;15.88;63.37
60059;BME280;45932;50.658;3.022;2022-10-16T06:01:01;100844.72;;;15.18;63.41
60059;BME280;45932;50.658;3.022;2022-10-16T06:03:27;100999.53;;;15.98;63.30
60059;BME280;45932;50.658;3.022;2022-10-16T06:05:53;100870.19;;;15.33;63.67
60059;BME280;45932;50.658;3.022;2022-10-16T06:08:20;100853.66;;;15.14;63.61
60059;BME280;45932;50.658;3.022;2022-10-16T06:10:47;100968.66;;;15.86;63.38
60059;BME280;45932;50.658;3.022;2022-10-16T06:13:14;101093.56;;;16.53;63.33
60059;BME280;45932;50.658;3.022;2022-10-16T06:15:41;100888.81;;;15.31;63.33
60059;BME280;45932;50.658;3.022;2022-10-16T06:18:10;101093.88;;;16.33;63.55
60059;BME280;45932;50.658;3.022;2022-10-16T06:20:36;101016.56;;;15.86;63.66
60059;BME280;45932;50.658;3.022;2022-10-16T06:23:02;100849.47;;;14.97;63.38
60059;BME280;45932;50.658;3.022;2022-10-16T06:25:30;100887.34;;;15.12;63.71
60059;BME280;45932;50.658;3.022;2022-10-16T06:27:55;100913.00;;;15.13;63.80
60059;BME280;45932;50.658;3.022;2022-10-16T06:30:20;100916.28;;;15.30;63.57
60059;BME280;45932;50.658;3.022;2022-10-16T06:32:46;101017.41;;;15.88;63.70
60059;BME280;45932;50.658;3.022;2022-10-16T06:35:11;101025.41;;;15.88;63.58
60059;BME280;45932;50.658;3.022;2022-10-16T06:37:37;100949.00;;;15.35;63.55
60059;BME280;45932;50.658;3.022;2022-10-16T06:40:02;101007.09;;;15.63;64.00
60059;BME280;45932;50.658;3.022;2022-10-16T06:42:29;101038.72;;;15.85;63.82
60059;BME280;45932;50.658;3.022;2022-10-16T06:44:55;101010.66;;;15.62;63.75
60059;BME280;45932;50.658;3.022;2022-10-16T06:47:20;101158.28;;;16.57;63.87
60059;BME280;45932;50.658;3.022;2022-10-16T06:49:45;101110.06;;;16.19;63.71
60059;BME280;45932;50.658;3.022;2022-10-16T06:52:11;100989.66;;;15.45;63.56
60059;BME280;45932;50.658;3.022;2022-10-16T06:54:36;101054.69;;;15.85;63.96
60059;BME280;45932;50.658;3.022;2022-10-16T06:57:01;101013.56;;;15.45;64.01
60059;BME280;45932;50.658;3.022;2022-10-16T06:59:27;101066.16;;;15.89;64.21
60059;BME280;45932;50.658;3.022;2022-10-16T07:01:52;100993.25;;;15.40;63.86
60059;BME280;45932;50.658;3.022;2022-10-16T07:04:18;100983.56;;;15.34;63.78
60059;BME280;45932;50.658;3.022;2022-10-16T07:06:43;100995.94;;;15.36;63.94
60059;BME280;45932;50.658;3.022;2022-10-16T07:09:09;100860.56;;;14.57;63.79
60059;BME280;45932;50.658;3.022;2022-10-16T07:11:37;100841.31;;;14.41;63.88
60059;BME280;45932;50.658;3.022;2022-10-16T07:14:03;101194.81;;;16.48;63.91
60059;BME280;45932;50.658;3.022;2022-10-16T07:16:30;101036.59;;;15.45;63.96
60059;BME280;45932;50.658;3.022;2022-10-16T07:18:57;100990.81;;;15.23;63.98
60059;BME280;45932;50.658;3.022;2022-10-16T07:21:25;100945.97;;;14.96;64.06
60059;BME280;45932;50.658;3.022;2022-10-16T07:23:56;100884.56;;;14.49;63.96
60059;BME280;45932;50.658;3.022;2022-10-16T07:26:23;101099.03;;;15.83;63.96
60059;BME280;45932;50.658;3.022;2022-10-16T07:28:49;101251.47;;;16.58;64.14
60059;BME280;45932;50.658;3.022;2022-10-16T07:31:18;101092.13;;;15.68;64.16
60059;BME280;45932;50.658;3.022;2022-10-16T07:33:45;101106.06;;;15.89;64.39
60059;BME280;45932;50.658;3.022;2022-10-16T07:36:13;101119.25;;;15.96;64.36
60059;BME280;45932;50.658;3.022;2022-10-16T07:38:39;101265.41;;;16.77;64.20
60059;BME280;45932;50.658;3.022;2022-10-16T07:41:06;101167.63;;;16.26;64.39
60059;BME280;45932;50.658;3.022;2022-10-16T07:43:33;100932.63;;;15.04;64.10
60059;BME280;45932;50.658;3.022;2022-10-16T07:45:59;100880.69;;;14.80;64.16
60059;BME280;45932;50.658;3.022;2022-10-16T07:48:28;100965.94;;;15.27;64.01
60059;BME280;45932;50.658;3.022;2022-10-16T07:51:05;101175.22;;;16.53;64.35
60059;BME280;45932;50.658;3.022;2022-10-16T07:53:31;100902.63;;;14.96;63.69
60059;BME280;45932;50.658;3.022;2022-10-16T07:56:01;101135.81;;;16.17;63.83
60059;BME280;45932;50.658;3.022;2022-10-16T07:58:28;101230.66;;;16.85;63.73
60059;BME280;45932;50.658;3.022;2022-10-16T08:00:57;101032.69;;;15.71;63.63
60059;BME280;45932;50.658;3.022;2022-10-16T08:03:23;101144.50;;;16.30;63.93
60059;BME280;45932;50.658;3.022;2022-10-16T08:05:49;101183.97;;;16.61;63.67
60059;BME280;45932;50.658;3.022;2022-10-16T08:08:15;100985.91;;;15.57;63.77
60059;BME280;45932;50.658;3.022;2022-10-16T08:10:41;100906.97;;;15.01;63.80
60059;BME280;45932;50.658;3.022;2022-10-16T08:13:06;101094.06;;;16.21;63.63
60059;BME280;45932;50.658;3.022;2022-10-16T08:15:32;101039.47;;;15.95;63.47
60059;BME280;45932;50.658;3.022;2022-10-16T08:18:02;101066.72;;;16.11;63.47
60059;BME280;45932;50.658;3.022;2022-10-16T08:20:28;101058.72;;;16.11;63.80
60059;BME280;45932;50.658;3.022;2022-10-16T08:22:54;100978.66;;;15.68;63.36
60059;BME280;45932;50.658;3.022;2022-10-16T08:25:23;101189.59;;;16.99;63.68
60059;BME280;45932;50.658;3.022;2022-10-16T08:27:49;101204.63;;;17.04;63.63
60059;BME280;45932;50.658;3.022;2022-10-16T08:30:15;101150.81;;;16.79;63.41
60059;BME280;45932;50.658;3.022;2022-10-16T08:32:41;101090.81;;;16.56;63.63
60059;BME280;45932;50.658;3.022;2022-10-16T08:35:08;101192.03;;;17.12;63.78
60059;BME280;45932;50.658;3.022;2022-10-16T08:37:34;101251.75;;;17.52;63.73
60059;BME280;45932;50.658;3.022;2022-10-16T08:40:00;101143.69;;;16.81;63.28
60059;BME280;45932;50.658;3.022;2022-10-16T08:42:39;101274.56;;;17.67;63.25
60059;BME280;45932;50.658;3.022;2022-10-16T08:51:23;101118.69;;;16.88;63.11
60059;BME280;45932;50.658;3.022;2022-10-16T08:56:45;100975.66;;;16.43;63.05
60059;BME280;45932;50.658;3.022;2022-10-16T08:59:10;101091.31;;;17.27;61.77
60059;BME280;45932;50.658;3.022;2022-10-16T09:01:41;101201.78;;;18.06;62.64
60059;BME280;45932;50.658;3.022;2022-10-16T09:07:15;101178.19;;;18.27;61.46
60059;BME280;45932;50.658;3.022;2022-10-16T09:10:05;101168.06;;;18.41;61.07
60059;BME280;45932;50.658;3.022;2022-10-16T09:12:33;101329.34;;;19.53;60.59
60059;BME280;45932;50.658;3.022;2022-10-16T09:23:34;101260.78;;;19.80;59.79
60059;BME280;45932;50.658;3.022;2022-10-16T09:26:01;101239.28;;;19.85;59.51
60059;BME280;45932;50.658;3.022;2022-10-16T09:28:28;101124.53;;;19.41;58.88
60059;BME280;45932;50.658;3.022;2022-10-16T09:30:53;101270.09;;;20.60;58.06
60059;BME280;45932;50.658;3.022;2022-10-16T09:33:22;101325.84;;;21.07;56.35
60059;BME280;45932;50.658;3.022;2022-10-16T09:35:54;101248.09;;;20.78;55.84
60059;BME280;45932;50.658;3.022;2022-10-16T09:38:32;101231.19;;;20.76;56.38
60059;BME280;45932;50.658;3.022;2022-10-16T09:41:13;101357.94;;;21.65;55.17
60059;BME280;45932;50.658;3.022;2022-10-16T09:43:45;101205.19;;;20.78;56.05
60059;BME280;45932;50.658;3.022;2022-10-16T09:46:32;101206.72;;;21.13;55.94
60059;BME280;45932;50.658;3.022;2022-10-16T09:51:47;101351.44;;;22.23;55.69
60059;BME280;45932;50.658;3.022;2022-10-16T09:54:15;101105.00;;;20.81;54.41
60059;BME280;45932;50.658;3.022;2022-10-16T09:56:41;101265.78;;;21.90;54.75
60059;BME280;45932;50.658;3.022;2022-10-16T09:59:12;101180.84;;;21.62;52.13
60059;BME280;45932;50.658;3.022;2022-10-16T10:04:06;101120.81;;;21.39;51.72
60059;BME280;45932;50.658;3.022;2022-10-16T10:06:37;101291.56;;;22.43;52.16
60059;BME280;45932;50.658;3.022;2022-10-16T10:11:46;101298.34;;;22.53;51.52
60059;BME280;45932;50.658;3.022;2022-10-16T10:14:23;101363.59;;;23.05;53.29
60059;BME280;45932;50.658;3.022;2022-10-16T10:16:50;101202.59;;;22.03;52.09
60059;BME280;45932;50.658;3.022;2022-10-16T10:19:22;101348.16;;;23.08;51.50
60059;BME280;45932;50.658;3.022;2022-10-16T10:21:48;101201.69;;;22.27;51.52
60059;BME280;45932;50.658;3.022;2022-10-16T10:24:15;101184.47;;;22.09;50.16
60059;BME280;45932;50.658;3.022;2022-10-16T10:27:09;101194.31;;;22.08;51.98
60059;BME280;45932;50.658;3.022;2022-10-16T10:30:10;101358.72;;;22.91;51.86
60059;BME280;45932;50.658;3.022;2022-10-16T10:35:54;101331.00;;;22.89;51.45
60059;BME280;45932;50.658;3.022;2022-10-16T10:44:26;101321.38;;;22.61;49.91
60059;BME280;45932;50.658;3.022;2022-10-16T10:52:58;101279.72;;;22.71;48.69
60059;BME280;45932;50.658;3.022;2022-10-16T10:55:39;101217.44;;;22.60;49.36
60059;BME280;45932;50.658;3.022;2022-10-16T11:08:32;101297.09;;;23.07;49.67
60059;BME280;45932;50.658;3.022;2022-10-16T11:11:03;101121.38;;;22.19;47.57
60059;BME280;45932;50.658;3.022;2022-10-16T11:13:37;101347.91;;;23.59;47.63
60059;BME280;45932;50.658;3.022;2022-10-16T11:16:19;101162.41;;;22.46;47.12
60059;BME280;45932;50.658;3.022;2022-10-16T11:18:52;101349.66;;;23.60;49.02
60059;BME280;45932;50.658;3.022;2022-10-16T11:21:22;101138.25;;;22.45;47.15
60059;BME280;45932;50.658;3.022;2022-10-16T11:23:55;101195.03;;;22.81;47.90
60059;BME280;45932;50.658;3.022;2022-10-16T11:26:32;101166.97;;;22.66;48.50
60059;BME280;45932;50.658;3.022;2022-10-16T11:29:02;101220.47;;;23.15;47.04
60059;BME280;45932;50.658;3.022;2022-10-16T11:31:39;101341.09;;;23.93;46.94
60059;BME280;45932;50.658;3.022;2022-10-16T11:39:26;101094.72;;;22.35;46.24
60059;BME280;45932;50.658;3.022;2022-10-16T11:42:03;101346.63;;;23.88;46.93
60059;BME280;45932;50.658;3.022;2022-10-16T11:44:59;101120.75;;;22.34;47.40
60059;BME280;45932;50.658;3.022;2022-10-16T11:47:35;101364.00;;;23.81;46.08
60059;BME280;45932;50.658;3.022;2022-10-16T11:50:36;101207.78;;;22.76;47.09
60059;BME280;45932;50.658;3.022;2022-10-16T11:53:16;101360.09;;;23.67;46.72
60059;BME280;45932;50.658;3.022;2022-10-16T11:55:45;101242.19;;;22.90;46.90
60059;BME280;45932;50.658;3.022;2022-10-16T11:58:26;101348.28;;;23.49;46.58
60059;BME280;45932;50.658;3.022;2022-10-16T12:01:17;101345.19;;;23.38;47.36
60059;BME280;45932;50.658;3.022;2022-10-16T12:04:01;101370.78;;;23.26;49.17
60059;BME280;45932;50.658;3.022;2022-10-16T12:06:37;101270.38;;;22.80;48.08
60059;BME280;45932;50.658;3.022;2022-10-16T12:09:14;101368.56;;;23.14;47.75
60059;BME280;45932;50.658;3.022;2022-10-16T12:11:40;101261.75;;;22.49;47.59
60059;BME280;45932;50.658;3.022;2022-10-16T12:16:57;101055.25;;;21.23;47.43
60059;BME280;45932;50.658;3.022;2022-10-16T12:19:26;101243.44;;;22.35;47.43
60059;BME280;45932;50.658;3.022;2022-10-16T12:21:55;101352.28;;;22.95;47.48
60059;BME280;45932;50.658;3.022;2022-10-16T12:24:39;101335.78;;;22.82;48.04
60059;BME280;45932;50.658;3.022;2022-10-16T12:27:24;101325.84;;;22.84;49.76
60059;BME280;45932;50.658;3.022;2022-10-16T12:30:04;101150.31;;;21.88;47.83
60059;BME280;45932;50.658;3.022;2022-10-16T12:32:35;101165.09;;;22.00;47.55
60059;BME280;45932;50.658;3.022;2022-10-16T12:35:03;101303.75;;;22.76;48.17
60059;BME280;45932;50.658;3.022;2022-10-16T12:37:34;101354.53;;;23.06;47.94
60059;BME280;45932;50.658;3.022;2022-10-16T12:40:34;101277.38;;;22.62;48.68
60059;BME280;45932;50.658;3.022;2022-10-16T12:42:58;101211.94;;;22.17;49.57
60059;BME280;45932;50.658;3.022;2022-10-16T12:45:30;101221.03;;;22.36;49.60
60059;BME280;45932;50.658;3.022;2022-10-16T12:47:57;101074.16;;;21.43;49.06
60059;BME280;45932;50.658;3.022;2022-10-16T12:50:36;101282.59;;;22.66;49.92
60059;BME280;45932;50.658;3.022;2022-10-16T12:53:16;101233.97;;;22.25;47.75
60059;BME280;45932;50.658;3.022;2022-10-16T13:01:43;101299.44;;;22.48;46.70
60059;BME280;45932;50.658;3.022;2022-10-16T13:04:26;101316.25;;;22.29;46.80
60059;BME280;45932;50.658;3.022;2022-10-16T13:30:25;101222.34;;;21.52;48.12
60059;BME280;45932;50.658;3.022;2022-10-16T13:33:12;101262.94;;;21.69;48.77
60059;BME280;45932;50.658;3.022;2022-10-16T13:35:47;101175.06;;;21.24;48.30
60059;BME280;45932;50.658;3.022;2022-10-16T13:38:15;101177.00;;;21.19;48.29
60059;BME280;45932;50.658;3.022;2022-10-16T13:43:19;101201.75;;;21.27;49.96
60059;BME280;45932;50.658;3.022;2022-10-16T13:46:01;101186.25;;;21.10;49.37
60059;BME280;45932;50.658;3.022;2022-10-16T13:48:28;101241.84;;;21.32;48.89
60059;BME280;45932;50.658;3.022;2022-10-16T13:51:04;101265.56;;;21.44;48.50
60059;BME280;45932;50.658;3.022;2022-10-16T13:53:32;101351.81;;;21.87;49.04
60059;BME280;45932;50.658;3.022;2022-10-16T13:55:57;101192.81;;;21.01;49.85
60059;BME280;45932;50.658;3.022;2022-10-16T13:58:25;101256.13;;;21.32;49.34
60059;BME280;45932;50.658;3.022;2022-10-16T14:00:59;101168.41;;;20.84;49.45
60059;BME280;45932;50.658;3.022;2022-10-16T14:03:27;101263.47;;;21.27;49.92
60059;BME280;45932;50.658;3.022;2022-10-16T14:05:59;101323.97;;;21.64;50.03
60059;BME280;45932;50.658;3.022;2022-10-16T14:08:26;101215.81;;;20.82;50.62
60059;BME280;45932;50.658;3.022;2022-10-16T14:10:56;101229.69;;;20.94;50.51
60059;BME280;45932;50.658;3.022;2022-10-16T14:13:31;101273.00;;;21.10;50.92
60059;BME280;45932;50.658;3.022;2022-10-16T14:16:02;101324.81;;;21.38;51.84
60059;BME280;45932;50.658;3.022;2022-10-16T14:18:30;101253.03;;;20.91;51.54
60059;BME280;45932;50.658;3.022;2022-10-16T14:21:03;101274.13;;;21.03;51.77
60059;BME280;45932;50.658;3.022;2022-10-16T14:23:31;101173.47;;;20.36;51.59
60059;BME280;45932;50.658;3.022;2022-10-16T14:28:36;101181.59;;;20.33;52.43
60059;BME280;45932;50.658;3.022;2022-10-16T14:31:28;101160.47;;;20.24;52.76
60059;BME280;45932;50.658;3.022;2022-10-16T14:33:54;101045.00;;;19.46;52.55
60059;BME280;45932;50.658;3.022;2022-10-16T14:36:21;100987.88;;;19.19;52.37
60059;BME280;45932;50.658;3.022;2022-10-16T14:41:28;101161.81;;;20.37;52.79
60059;BME280;45932;50.658;3.022;2022-10-16T14:43:56;101089.16;;;19.91;53.31
60059;BME280;45932;50.658;3.022;2022-10-16T14:46:30;100985.66;;;19.33;53.57
60059;BME280;45932;50.658;3.022;2022-10-16T14:51:33;101156.03;;;20.23;53.51
60059;BME280;45932;50.658;3.022;2022-10-16T14:53:59;101016.22;;;19.55;53.04
60059;BME280;45932;50.658;3.022;2022-10-16T14:56:28;101332.94;;;21.36;53.16
60059;BME280;45932;50.658;3.022;2022-10-16T14:58:55;101221.56;;;20.69;53.60
60059;BME280;45932;50.658;3.022;2022-10-16T15:01:20;101087.34;;;19.93;54.07
60059;BME280;45932;50.658;3.022;2022-10-16T15:03:46;101162.50;;;20.44;54.00
60059;BME280;45932;50.658;3.022;2022-10-16T15:06:13;101133.50;;;20.30;53.61
60059;BME280;45932;50.658;3.022;2022-10-16T15:08:39;101159.75;;;20.47;53.79
60059;BME280;45932;50.658;3.022;2022-10-16T15:11:09;100981.75;;;19.44;52.92
60059;BME280;45932;50.658;3.022;2022-10-16T15:13:37;101170.50;;;20.45;53.63
60059;BME280;45932;50.658;3.022;2022-10-16T15:16:02;101139.50;;;20.37;53.92
60059;BME280;45932;50.658;3.022;2022-10-16T15:18:27;101024.69;;;19.69;53.83
60059;BME280;45932;50.658;3.022;2022-10-16T15:20:53;100973.88;;;19.39;54.01
60059;BME280;45932;50.658;3.022;2022-10-16T15:23:20;101097.50;;;20.10;53.91
60059;BME280;45932;50.658;3.022;2022-10-16T15:25:49;101165.81;;;20.52;54.02